AirNav   Duncan Aviation - Near you to keep you flying
 
 487 users online  

KDRP Delta Regional Airport
Colt, Arkansas, USA

GOING TO COLT?


FAA INFORMATION EFFECTIVE 11 AUGUST 2022

Location

FAA Identifier: DRP
Lat/Long: 35-07-12.1880N 090-49-35.4050W
35-07.203133N 090-49.590083W
35.1200522,-90.8265014
(estimated)
Elevation: 238.8 ft. / 72.8 m (surveyed)
Variation: 01W (2015)
From city: 1 mile SW of COLT, AR
Time zone: UTC -5 (UTC -6 during Standard Time)
Zip code: 72326

Airport Operations

Airport use: Open to the public
Activation date: 04/2014
Control tower: no
ARTCC: MEMPHIS CENTER
FSS: JONESBORO FLIGHT SERVICE STATION
NOTAMs facility: JBR (NOTAM-D service available)
Attendance: UNATNDD
Wind indicator: lighted
Segmented circle: yes
Lights: ACTVT REIL RWYS 18 & 36; HIRL RWY 18/36 - CTAF. PAPI RWYS 18 & 36 OPERS CONTINUOUSLY.
Beacon: white-green (lighted land airport)
Operates sunset to sunrise.

Airport Communications

CTAF/UNICOM: 123.0
  • APCH/DEP SVC PRVDD BY MEMPHIS ARTCC ON FREQS 135.3/335.8 (BRINKLEY RCAG).

Nearby radio navigation aids

VOR radial/distance  VOR name  Freq  Var
GQEr227/21.8GILMORE VOR/DME113.0004E
UJMr346/33.5MARVELL VOR/DME109.6001E

Airport Services

Fuel available: 100LL
100LL:FUEL AVBL SELF SERVE AFT HRS WITH CREDIT CARD
Parking: tiedowns

Runway Information

Runway 18/36

Dimensions: 5003 x 75 ft. / 1525 x 23 m
Surface: asphalt, in good condition
Weight bearing capacity: 
Single wheel: 30.0
Runway edge lights: high intensity
RUNWAY 18  RUNWAY 36
Latitude: 35-07.615412N35-06.790852N
Longitude: 090-49.584142W090-49.596037W
Elevation: 238.8 ft.228.7 ft.
Traffic pattern: leftleft
Runway heading: 182 magnetic, 181 true002 magnetic, 001 true
Markings: precision, in good conditionprecision, in good condition
Visual slope indicator: 2-light PAPI on left (3.00 degrees glide path)2-light PAPI on left (3.00 degrees glide path)
Runway end identifier lights: yesyes
Touchdown point: yes, no lightsyes, no lights

Airport Ownership and Management from official FAA records

Ownership: Publicly-owned
Owner: DELTA REGIONAL AIRPORT AUTHORITY
PO BOX 248, 8535 MAIN STREET
COLT, AR 72326
Phone 870-208-6607
Manager: SHANNON HOBBS
P. O. BOX 267
COLT, AR 72326
Phone 870-633-6083

Airport Operational Statistics

Aircraft based on the field: 16
Single engine airplanes: 16
    
Aircraft operations: avg 59/week *
65% local general aviation
32% transient general aviation
3% military
* for 12-month period ending 30 September 2020

Additional Remarks

FOR CD CTC MEMPHIS ARTCC AT 901-368-8453/8449.

Instrument Procedures

NOTE: All procedures below are presented as PDF files. If you need a reader for these files, you should download the free Adobe Reader.

NOT FOR NAVIGATION. Please procure official charts for flight.
FAA instrument procedures published for use from 11 August 2022 at 0901Z to 08 September 2022 at 0900z.

 
IAPs - Instrument Approach Procedures
RNAV (GPS) RWY 18   download (191KB)
RNAV (GPS) RWY 36   download (188KB)
NOTE: Special Take-Off Minimums/Departure Procedures apply   download

Other nearby airports with instrument procedures:

6M7 - Marianna/Lee County Airport-Steve Edwards Field (20 nm S)
M36 - Frank Federer Memorial Airport (22 nm SW)
M60 - Woodruff County Airport (24 nm NW)
KAWM - West Memphis Municipal Airport (29 nm E)
KHEE - Thompson-Robbins Airport (33 nm S)
 
Loc | Ops | Rwys | IFR | FBO | Links
Com | Nav | Svcs | Stats | Notes
Aerial photo
No photo
 
Airport distance calculator
Flying to Delta Regional Airport? Find the distance to fly.

From to KDRP

Sunrise and sunset
Times for 11-Aug-2022
 Local
(UTC-5)
 Zulu
(UTC)
Morning civil twilight05:5410:54
Sunrise06:2111:21
Sunset19:5600:56
Evening civil twilight20:2301:23

Current date and time
Zulu (UTC)  11-Aug-2022 09:02:13
Local (UTC-5)  11-Aug-2022 04:02:13
 
METAR
KAWM 
29nm E 
110853Z AUTO 02003KT 10SM FEW008 BKN095 24/23 A3005 RMK AO2 RAE10 SLP169 P0000 60000 T02440228 58007
KUTA 
35nm SE 
110855Z AUTO 00000KT 6SM BR SCT004 OVC050 23/23 A3006 RMK AO2 T02320232 $
KM19 
35nm NW 
110856Z AUTO 02006KT 10SM CLR 22/22 A3008 RMK AO2 SLP182 T02220222 58006
KMEM 
42nm E 
110854Z 08005KT 8SM FEW009 SCT020 OVC040 26/22 A3006 RMK AO2 SLP173 60001 T02560222 58009
KJBR 
44nm N 
110853Z AUTO 02008KT 10SM CLR 23/22 A3008 RMK AO2 SLP183 T02280217 58007 $
KSRC 
45nm W 
110856Z AUTO 02005KT 10SM FEW080 24/23 A3007 RMK AO2 SLP180 T02390228 56007
KSGT 
48nm SW 
110856Z AUTO 09004KT 6SM BR BKN003 BKN036 24/23 A3006 RMK AO2 SLP179 T02390233 58003
KNQA 
49nm E 
110650Z 00000KT 10SM CLR 24/23 A3007
TAF
KMEM 
42nm E 
110805Z 1108/1212 03003KT 6SM BR VCSH BKN015 TEMPO 1110/1112 4SM BR OVC010 FM111500 05005KT P6SM VCSH BKN025 FM111900 03008KT P6SM VCTS BKN050CB FM120100 05004KT P6SM SCT040 SCT250
KJBR 
44nm N 
110520Z 1106/1206 04003KT P6SM SCT050 BKN100 FM110900 04003KT 4SM BR SCT015 FM111400 05006KT P6SM SCT050 SCT250 FM120100 VRB03KT P6SM SCT250
NOTAMs
Click for the latest NOTAMs
NOTAMs are issued by the DoD/FAA and will open in a separate window not controlled by AirNav.

 

 
 

FBO, Fuel Providers, and Aircraft Ground Support

  
 Business Name 
 
 Contact 
 
 Services / Description 
 
Fuel Prices
 
Comments
  
Delta Regional Airport 901-490-5165
no information available

If you are affiliated with Delta Regional Airport and would like to show here your services, contact info, web link, logo, and more, click here
100LL Jet A
SS $7.29 $5.89 
 Updated 06-Jun-2022
 
   1 read write
SS=Self service
Update Fuel Prices
 

Would you like to see your business listed on this page?

 If your business provides an interesting product or service to pilots, flight crews, aircraft, or users of the Delta Regional Airport, you should consider listing it here.  To start the listing process, click on the button below
 
Add a business
 

Other Pages about Delta Regional Airport

Update a link
 
Copyright © AirNav, LLC. All rights reserved. Privacy Policy  Contact